Time;durP1;ratioP1;P1;durP2;ratioP2;P2;SDS_P1;SDS_P2;PMS_P1;PMS_P2;Temp;Humidity;BMP_temperature;BMP_pressure;BME280_temperature;BME280_humidity;BME280_pressure;Samples;Min_cycle;Max_cycle;Signal;HPM_P1;HPM_P2
2023/06/14 00:00:11;;;;;;;16.23;14.67;;;;;;;17.15;100.00;92592.31;5008380;28;20243;-74
2023/06/14 00:02:39;;;;;;;16.70;15.10;;;;;;;17.17;100.00;92588.25;5011692;28;20184;-73
2023/06/14 00:05:05;;;;;;;17.17;13.93;;;;;;;17.03;100.00;92571.09;5010712;28;20231;-73
2023/06/14 00:07:42;;;;;;;16.87;15.00;;;;;;;17.18;100.00;92586.38;5010869;28;20191;-73
2023/06/14 00:10:08;;;;;;;16.00;14.53;;;;;;;17.25;100.00;92584.78;5011873;28;20223;-74
2023/06/14 00:12:34;;;;;;;14.63;13.20;;;;;;;17.22;100.00;92579.38;5013287;28;20242;-74
2023/06/14 00:15:01;;;;;;;16.73;15.17;;;;;;;17.23;100.00;92576.41;5010310;28;20224;-74
2023/06/14 00:17:30;;;;;;;17.00;15.20;;;;;;;17.24;100.00;92579.81;5011547;28;20195;-73
2023/06/14 00:19:56;;;;;;;14.80;13.40;;;;;;;17.06;100.00;92565.16;5010223;28;20234;-74
2023/06/14 00:22:24;;;;;;;15.50;14.07;;;;;;;17.00;100.00;92543.50;5010574;28;20270;-74
2023/06/14 00:24:50;;;;;;;15.80;14.23;;;;;;;17.21;100.00;92565.38;5012536;28;20231;-74
2023/06/14 00:27:16;;;;;;;15.33;14.00;;;;;;;17.11;100.00;92562.34;5012933;28;20183;-74
2023/06/14 00:29:41;;;;;;;14.20;13.10;;;;;;;17.13;100.00;92566.25;5010105;28;20254;-73
2023/06/14 00:32:07;;;;;;;14.57;13.27;;;;;;;17.15;100.00;92568.56;4996651;28;20206;-75
2023/06/14 00:34:32;;;;;;;14.67;13.43;;;;;;;17.09;100.00;92554.75;5027630;28;20230;-74
2023/06/14 00:36:58;;;;;;;14.20;13.03;;;;;;;17.14;100.00;92554.59;5015835;28;20182;-74
2023/06/14 00:39:23;;;;;;;13.63;12.53;;;;;;;17.10;100.00;92553.69;5029690;28;20226;-74
2023/06/14 00:41:49;;;;;;;13.63;12.53;;;;;;;16.77;100.00;92550.13;5012255;28;20207;-74
2023/06/14 00:44:16;;;;;;;15.87;14.27;;;;;;;16.49;100.00;92564.03;5013834;28;20207;-74
2023/06/14 00:46:42;;;;;;;14.50;13.30;;;;;;;16.88;100.00;92555.81;5007080;28;20193;-73
2023/06/14 00:49:08;;;;;;;13.13;12.10;;;;;;;16.86;100.00;92532.41;5009815;28;20179;-74
2023/06/14 00:51:34;;;;;;;13.73;12.53;;;;;;;17.04;100.00;92564.72;4993340;28;20187;-73
2023/06/14 00:54:00;;;;;;;14.77;13.50;;;;;;;16.99;100.00;92552.50;5010579;28;20191;-73
2023/06/14 00:56:27;;;;;;;14.43;13.00;;;;;;;17.04;100.00;92554.94;5009626;28;20188;-74
2023/06/14 00:58:53;;;;;;;14.90;13.63;;;;;;;16.91;100.00;92532.22;5006862;28;20195;-74
2023/06/14 01:01:18;;;;;;;13.83;12.63;;;;;;;17.10;100.00;92553.69;5007103;28;20227;-73
2023/06/14 01:03:44;;;;;;;13.63;12.63;;;;;;;17.17;100.00;92545.25;5012663;28;20209;-74
2023/06/14 01:06:40;;;;;;;13.77;12.70;;;;;;;17.12;100.00;92554.13;5014064;28;20752;-74
2023/06/14 01:09:24;;;;;;;14.87;13.47;;;;;;;17.12;100.00;92551.47;5016445;28;20267;-74
2023/06/14 01:11:53;;;;;;;14.03;12.93;;;;;;;17.14;100.00;92553.78;5013769;28;20219;-73
2023/06/14 01:14:21;;;;;;;14.13;12.83;;;;;;;17.04;100.00;92538.34;4994014;28;20239;-74
2023/06/14 01:16:47;;;;;;;13.70;12.47;;;;;;;17.11;100.00;92555.22;5015622;28;20180;-74
2023/06/14 01:19:14;;;;;;;14.53;13.33;;;;;;;16.96;100.00;92525.97;5014682;28;20186;-74
2023/06/14 01:21:41;;;;;;;13.43;12.33;;;;;;;17.06;100.00;92551.97;5014417;28;20194;-73
2023/06/14 01:24:11;;;;;;;13.70;12.63;;;;;;;16.80;100.00;92523.13;5019815;28;20180;-74
2023/06/14 01:26:38;;;;;;;13.60;12.43;;;;;;;16.95;100.00;92551.56;5014884;28;20214;-74
2023/06/14 01:29:04;;;;;;;14.23;13.13;;;;;;;16.98;100.00;92550.94;5015421;28;20207;-74
2023/06/14 01:31:39;;;;;;;14.80;13.07;;;;;;;16.89;100.00;92546.78;5015318;28;20195;-75
2023/06/14 01:34:05;;;;;;;14.43;13.23;;;;;;;16.92;100.00;92546.94;5002763;28;20180;-75
2023/06/14 01:36:31;;;;;;;13.13;12.13;;;;;;;16.85;100.00;92549.31;5016004;28;20172;-74
2023/06/14 01:38:58;;;;;;;15.17;13.83;;;;;;;16.74;100.00;92534.16;5017530;28;20199;-74
2023/06/14 01:41:24;;;;;;;14.73;13.63;;;;;;;16.87;100.00;92549.00;5015105;28;20196;-74
2023/06/14 01:43:52;;;;;;;14.17;12.80;;;;;;;16.73;100.00;92536.00;5015280;28;20203;-74
2023/06/14 01:46:17;;;;;;;13.67;12.47;;;;;;;16.84;100.00;92553.03;5012961;28;20231;-74
2023/06/14 01:48:43;;;;;;;14.13;12.87;;;;;;;16.94;100.00;92546.63;5018284;28;20203;-75
2023/06/14 01:51:08;;;;;;;14.97;13.60;;;;;;;16.86;100.00;92545.56;5026780;28;20229;-74
2023/06/14 01:53:34;;;;;;;14.50;13.30;;;;;;;16.68;100.00;92522.25;5021939;28;20666;-74
2023/06/14 01:56:01;;;;;;;14.03;12.83;;;;;;;16.70;100.00;92547.19;5015132;28;20294;-72
2023/06/14 01:58:26;;;;;;;13.40;12.33;;;;;;;16.60;100.00;92544.94;5011329;28;20187;-74
2023/06/14 02:00:55;;;;;;;14.50;13.30;;;;;;;16.47;100.00;92530.06;5022148;28;20226;-72
2023/06/14 02:03:20;;;;;;;14.00;12.80;;;;;;;16.69;100.00;92552.78;5029586;28;20254;-74
2023/06/14 02:05:46;;;;;;;13.40;12.33;;;;;;;16.51;100.00;92540.78;5024257;28;20227;-74
2023/06/14 02:08:11;;;;;;;13.07;11.63;;;;;;;16.23;100.00;92563.28;5020374;28;20209;-74
2023/06/14 02:10:36;;;;;;;15.03;13.73;;;;;;;16.07;100.00;92547.22;4998310;28;20223;-77
2023/06/14 02:13:02;;;;;;;14.40;13.27;;;;;;;16.20;100.00;92561.28;5023110;28;20227;-78
2023/06/14 02:15:33;;;;;;;15.00;13.80;;;;;;;16.15;100.00;92556.19;4995316;28;21192;-81
2023/06/14 02:17:59;;;;;;;13.73;12.73;;;;;;;16.28;100.00;92571.78;5002995;28;20648;-82
2023/06/14 02:20:24;;;;;;;14.50;13.00;;;;;;;16.21;100.00;92568.88;4995101;28;20231;-82
2023/06/14 02:22:50;;;;;;;14.57;13.23;;;;;;;16.22;100.00;92572.28;5015477;28;20211;-82
2023/06/14 02:25:15;;;;;;;14.13;13.03;;;;;;;16.23;100.00;92571.19;5012078;28;20232;-82
2023/06/14 02:27:40;;;;;;;15.43;14.23;;;;;;;15.97;100.00;92561.47;4995113;28;20213;-83
2023/06/14 02:30:07;;;;;;;14.83;13.50;;;;;;;15.97;100.00;92563.31;5012050;28;20218;-82
2023/06/14 02:32:35;;;;;;;15.73;14.33;;;;;;;16.16;100.00;92570.88;4995373;28;20187;-83
2023/06/14 02:35:01;;;;;;;15.17;13.87;;;;;;;16.22;100.00;92573.06;5001277;28;20299;-85
2023/06/14 02:37:26;;;;;;;14.40;13.20;;;;;;;16.21;100.00;92574.16;5018943;28;20187;-84
2023/06/14 02:39:51;;;;;;;14.77;13.57;;;;;;;16.07;100.00;92563.03;5013088;28;20216;-82
2023/06/14 02:42:17;;;;;;;14.90;13.60;;;;;;;16.17;100.00;92572.47;5013540;28;20195;-83
2023/06/14 02:44:43;;;;;;;14.63;13.43;;;;;;;16.13;100.00;92567.03;5012278;28;20278;-81
2023/06/14 02:47:08;;;;;;;13.17;11.97;;;;;;;16.19;100.00;92575.56;5012501;28;20179;-84
2023/06/14 02:49:34;;;;;;;13.83;12.70;;;;;;;16.03;100.00;92577.91;5001500;28;20236;-83
2023/06/14 02:51:59;;;;;;;14.03;12.83;;;;;;;15.97;100.00;92568.59;5013651;28;20906;-83
2023/06/14 02:54:25;;;;;;;14.53;13.33;;;;;;;16.00;100.00;92571.38;5014090;28;20257;-82
2023/06/14 02:56:50;;;;;;;15.20;14.00;;;;;;;16.05;100.00;92573.09;5018427;28;20194;-82
2023/06/14 02:59:16;;;;;;;14.03;12.83;;;;;;;16.17;100.00;92581.13;5011860;28;20254;-82
2023/06/14 03:01:42;;;;;;;15.00;13.70;;;;;;;16.17;100.00;92577.72;5017057;28;20184;-82
2023/06/14 03:04:08;;;;;;;14.33;13.07;;;;;;;16.34;100.00;92586.38;5016909;28;20195;-81
2023/06/14 03:06:34;;;;;;;14.87;13.03;;;;;;;16.47;100.00;92585.41;5029841;28;20178;-80
2023/06/14 03:09:06;;;;;;;14.60;13.47;;;;;;;16.30;100.00;92560.94;5009076;28;20184;-80
2023/06/14 03:11:32;;;;;;;13.40;12.30;;;;;;;16.39;100.00;92583.53;5016303;28;20215;-76
2023/06/14 03:13:58;;;;;;;14.00;12.87;;;;;;;16.49;100.00;92588.53;5011395;28;20203;-75
2023/06/14 03:16:24;;;;;;;13.33;12.23;;;;;;;16.45;100.00;92573.66;5013209;28;20180;-75
2023/06/14 03:18:52;;;;;;;15.77;14.17;;;;;;;16.34;100.00;92556.59;5012059;28;20218;-76
2023/06/14 03:21:21;;;;;;;14.07;12.87;;;;;;;16.56;100.00;92580.88;5009041;28;20222;-76
2023/06/14 03:23:48;;;;;;;13.90;12.80;;;;;;;16.63;100.00;92589.09;4994591;28;20191;-76
2023/06/14 03:26:17;;;;;;;13.03;12.13;;;;;;;16.71;100.00;92593.56;5010385;28;20318;-76
2023/06/14 03:28:44;;;;;;;14.30;13.20;;;;;;;16.81;100.00;92603.00;5013323;28;20183;-76
2023/06/14 03:31:09;;;;;;;14.07;12.97;;;;;;;16.89;100.00;92589.78;5011812;28;20242;-76
2023/06/14 03:33:35;;;;;;;14.37;13.23;;;;;;;16.91;100.00;92587.59;5012805;28;20214;-76
2023/06/14 03:36:01;;;;;;;13.53;12.17;;;;;;;17.00;100.00;92598.09;5011560;28;20230;-76
2023/06/14 03:38:27;;;;;;;14.40;13.20;;;;;;;17.12;100.00;92598.22;4994662;28;20200;-76
2023/06/14 03:40:52;;;;;;;14.17;12.83;;;;;;;17.05;100.00;92605.84;5010756;28;20322;-76
2023/06/14 03:43:18;;;;;;;13.93;12.53;;;;;;;17.06;100.00;92602.09;5011776;28;20222;-76
2023/06/14 03:45:43;;;;;;;14.43;13.00;;;;;;;17.02;100.00;92601.19;5008121;28;20215;-72
2023/06/14 03:48:09;;;;;;;14.90;13.37;;;;;;;16.74;100.00;92602.72;5005999;28;20188;-72
2023/06/14 03:50:37;;;;;;;12.80;11.60;;;;;;;16.53;100.00;92607.13;5003381;28;20231;-71
2023/06/14 03:53:03;;;;;;;14.53;13.00;;;;;;;16.50;100.00;92605.88;5008241;28;20198;-71
2023/06/14 03:55:31;;;;;;;13.90;12.50;;;;;;;16.76;100.00;92601.28;5010021;28;20247;-69
2023/06/14 03:57:56;;;;;;;14.10;12.90;;;;;;;16.92;100.00;92612.09;5009528;28;20197;-68
2023/06/14 04:00:22;;;;;;;14.30;13.07;;;;;;;17.05;100.00;92606.63;5009430;28;20880;-69
2023/06/14 04:02:47;;;;;;;15.80;14.37;;;;;;;17.12;100.00;92614.78;5008590;28;20227;-69
2023/06/14 04:05:16;;;;;;;14.10;13.00;;;;;;;17.20;100.00;92613.19;5002787;28;20219;-72
2023/06/14 04:07:44;;;;;;;13.70;12.50;;;;;;;17.27;100.00;92621.41;5014427;28;20229;-67
2023/06/14 04:10:11;;;;;;;14.97;13.77;;;;;;;17.38;100.00;92612.03;5008897;28;20251;-67
2023/06/14 04:12:36;;;;;;;12.57;11.60;;;;;;;17.30;100.00;92605.72;5004158;28;20220;-69
2023/06/14 04:15:02;;;;;;;13.73;12.67;;;;;;;17.73;100.00;92620.53;5008244;28;20278;-69
2023/06/14 04:17:28;;;;;;;13.20;12.10;;;;;;;17.84;100.00;92605.88;5008226;28;20196;-69
2023/06/14 04:19:53;;;;;;;13.97;12.87;;;;;;;17.97;100.00;92596.88;5008841;28;20219;-75
2023/06/14 04:22:19;;;;;;;14.53;13.27;;;;;;;18.38;100.00;92607.44;5009655;28;20729;-75
2023/06/14 04:24:44;;;;;;;14.33;13.03;;;;;;;18.70;98.98;92614.56;5009267;28;21078;-72
2023/06/14 04:27:09;;;;;;;15.30;14.00;;;;;;;18.81;98.98;92624.41;5008784;28;20832;-75
2023/06/14 04:29:36;;;;;;;15.77;14.10;;;;;;;18.98;97.27;92618.16;5009297;28;20223;-73
2023/06/14 04:32:01;;;;;;;16.13;14.63;;;;;;;19.64;95.85;92616.88;5007979;28;20733;-76
2023/06/14 04:34:33;;;;;;;17.10;15.40;;;;;;;21.63;83.24;92622.53;5008336;28;20241;-73
2023/06/14 04:37:01;;;;;;;15.63;14.27;;;;;;;22.16;78.94;92633.22;5005982;28;20192;-74
2023/06/14 04:39:27;;;;;;;15.10;13.67;;;;;;;21.24;80.57;92623.50;5002924;28;20309;-73
2023/06/14 04:41:56;;;;;;;14.80;13.50;;;;;;;20.62;84.27;92624.94;5006174;28;20270;-73
2023/06/14 04:44:29;;;;;;;13.43;12.23;;;;;;;20.76;83.93;92624.56;5008635;28;20241;-73
2023/06/14 04:46:56;;;;;;;13.73;12.57;;;;;;;20.80;85.27;92624.66;5008945;28;20197;-74
2023/06/14 04:49:23;;;;;;;14.70;13.30;;;;;;;21.72;81.63;92639.06;5007691;28;20241;-73
2023/06/14 04:51:50;;;;;;;14.63;13.33;;;;;;;21.56;81.09;92635.66;5008493;28;20189;-73
2023/06/14 04:54:18;;;;;;;15.03;13.63;;;;;;;20.84;86.23;92622.88;5007574;28;20198;-74
2023/06/14 04:56:44;;;;;;;15.17;13.80;;;;;;;20.38;88.60;92629.59;4990368;28;20173;-74
2023/06/14 04:59:14;;;;;;;15.10;13.70;;;;;;;20.24;87.96;92622.03;5003273;28;20193;-74
2023/06/14 05:01:40;;;;;;;14.13;12.83;;;;;;;20.89;85.62;92638.56;4999879;28;20232;-73
2023/06/14 05:04:05;;;;;;;15.37;13.87;;;;;;;20.21;89.16;92635.19;4990159;28;21072;-74
2023/06/14 05:06:31;;;;;;;14.83;13.63;;;;;;;20.89;87.06;92641.19;5008652;28;20201;-72
2023/06/14 05:08:56;;;;;;;15.10;13.70;;;;;;;20.95;85.98;92632.63;5008646;28;20185;-67
2023/06/14 05:11:23;;;;;;;15.30;13.90;;;;;;;21.32;83.08;92654.44;5008537;28;20246;-68
2023/06/14 05:13:50;;;;;;;15.37;13.97;;;;;;;21.35;84.32;92646.56;5007670;28;20194;-73
2023/06/14 05:16:19;;;;;;;14.33;13.00;;;;;;;22.34;78.02;92643.44;5008166;28;20230;-74
2023/06/14 05:18:45;;;;;;;16.03;14.53;;;;;;;22.51;76.84;92657.16;5009112;28;20192;-74
2023/06/14 05:21:11;;;;;;;15.80;13.85;;;;;;;22.31;78.06;92654.78;5007764;28;20210;-71
2023/06/14 05:23:36;;;;;;;15.82;14.27;;;;;;;22.20;77.07;92658.03;4994735;28;20194;-72
2023/06/14 05:26:04;;;;;;;16.73;15.02;;;;;;;21.78;79.45;92672.25;5007761;28;20234;-72
2023/06/14 05:28:30;;;;;;;16.73;15.20;;;;;;;21.08;84.91;92663.34;5001332;28;20203;-72
2023/06/14 05:30:56;;;;;;;17.30;15.48;;;;;;;21.85;81.98;92672.44;4994740;28;20306;-68
2023/06/14 05:33:21;;;;;;;16.80;15.20;;;;;;;22.32;79.30;92680.28;5008213;28;20264;-68
2023/06/14 05:35:47;;;;;;;16.10;14.60;;;;;;;22.88;77.81;92681.44;5007049;28;20235;-72
2023/06/14 05:38:12;;;;;;;16.67;14.32;;;;;;;24.45;71.87;92690.50;5008078;28;20275;-69
2023/06/14 05:40:37;;;;;;;16.55;14.82;;;;;;;23.73;71.17;92685.25;5007706;28;20815;-71
2023/06/14 05:43:03;;;;;;;17.27;15.43;;;;;;;22.62;76.31;92676.75;5010173;28;20199;-70
2023/06/14 05:45:28;;;;;;;16.10;14.52;;;;;;;21.50;80.48;92659.06;5008067;28;20227;-69
2023/06/14 05:47:54;;;;;;;17.58;15.75;;;;;;;21.74;83.79;92682.03;5008588;28;20196;-71
2023/06/14 05:50:20;;;;;;;16.63;14.98;;;;;;;22.53;81.89;92684.19;5011098;28;20226;-69
2023/06/14 05:52:46;;;;;;;16.55;14.95;;;;;;;22.75;78.16;92691.47;4993427;28;20203;-71
2023/06/14 05:55:14;;;;;;;17.95;15.85;;;;;;;22.73;77.78;92688.38;5012877;28;20460;-81
2023/06/14 05:57:40;;;;;;;21.98;15.48;;;;;;;22.05;77.67;92668.69;5008810;28;20265;-81
2023/06/14 06:00:11;;;;;;;18.92;15.60;;;;;;;21.36;80.76;92672.00;5011232;28;20209;-82
2023/06/14 06:02:36;;;;;;;17.75;15.95;;;;;;;20.89;84.71;92670.41;4996022;28;20215;-81
2023/06/14 06:05:02;;;;;;;17.55;15.75;;;;;;;20.40;88.38;92680.44;5012825;28;20212;-81
2023/06/14 06:07:28;;;;;;;18.90;16.33;;;;;;;20.64;88.27;92685.63;5018177;28;20253;-80
2023/06/14 06:09:53;;;;;;;19.30;16.33;;;;;;;19.94;89.21;92671.13;5013124;28;20217;-80
2023/06/14 06:12:18;;;;;;;19.93;17.40;;;;;;;20.06;89.69;92687.00;5011849;28;20863;-80
2023/06/14 06:14:44;;;;;;;18.97;16.83;;;;;;;19.90;90.44;92691.44;4995375;28;20237;-85
2023/06/14 06:17:09;;;;;;;18.70;16.83;;;;;;;19.68;92.42;92672.56;5012557;28;20220;-80
2023/06/14 06:19:35;;;;;;;21.20;18.03;;;;;;;19.65;91.79;92679.31;5012932;28;20221;-80
2023/06/14 06:22:00;;;;;;;18.50;16.70;;;;;;;19.56;93.46;92685.84;5012276;28;20243;-81
2023/06/14 06:24:25;;;;;;;19.10;16.57;;;;;;;19.43;94.17;92671.81;5018773;28;20251;-79
2023/06/14 06:26:51;;;;;;;18.50;16.60;;;;;;;19.56;93.96;92689.25;5016453;28;20184;-80
2023/06/14 06:29:16;;;;;;;18.60;16.67;;;;;;;19.05;95.17;92639.56;5012377;28;20169;-80
2023/06/14 06:31:41;;;;;;;18.37;16.43;;;;;;;18.37;98.21;92688.56;5017143;28;20203;-79
2023/06/14 06:34:07;;;;;;;18.60;16.70;;;;;;;18.49;99.54;92645.59;5002701;28;20182;-80
2023/06/14 06:36:32;;;;;;;19.60;17.60;;;;;;;18.96;100.00;92702.38;5013576;28;20191;-80
2023/06/14 06:38:58;;;;;;;19.87;17.23;;;;;;;18.95;99.97;92695.53;5012186;28;20197;-80
2023/06/14 06:41:23;;;;;;;23.90;17.03;;;;;;;18.83;100.00;92679.63;5012372;28;20193;-80
2023/06/14 06:43:48;;;;;;;18.20;15.90;;;;;;;18.24;100.00;92638.63;5013873;28;20200;-80
2023/06/14 06:46:14;;;;;;;18.27;16.47;;;;;;;18.98;99.44;92700.19;5015796;28;20216;-80
2023/06/14 06:48:39;;;;;;;21.67;17.00;;;;;;;18.98;97.60;92673.72;5025279;28;20194;-80
2023/06/14 06:51:05;;;;;;;17.83;15.73;;;;;;;19.31;95.34;92692.22;5012785;28;20225;-80
2023/06/14 06:53:30;;;;;;;17.63;15.83;;;;;;;19.14;95.11;92683.31;5013092;28;20227;-80
2023/06/14 06:55:56;;;;;;;18.20;15.97;;;;;;;19.25;95.38;92699.56;5011882;28;20236;-80
2023/06/14 06:58:22;;;;;;;18.30;16.50;;;;;;;19.19;96.70;92687.66;5012571;28;20196;-80
2023/06/14 07:00:47;;;;;;;38.13;35.07;;;;;;;19.37;93.26;92681.09;5010795;28;20370;-80
2023/06/14 07:03:12;;;;;;;24.10;21.87;;;;;;;19.88;90.59;92693.66;5012912;28;20204;-80
2023/06/14 07:05:38;;;;;;;17.97;16.07;;;;;;;19.96;88.42;92674.22;5011501;28;20252;-80
2023/06/14 07:08:03;;;;;;;18.60;16.60;;;;;;;20.81;86.68;92685.34;5008198;28;20178;-80
2023/06/14 07:10:29;;;;;;;19.47;16.30;;;;;;;22.01;83.92;92715.69;5011672;28;20222;-80
2023/06/14 07:12:54;;;;;;;23.40;15.47;;;;;;;22.87;80.39;92720.63;4996538;28;20246;-79
2023/06/14 07:15:20;;;;;;;17.13;15.27;;;;;;;23.80;73.66;92707.84;5016037;28;20233;-79
2023/06/14 07:17:45;;;;;;;18.17;16.27;;;;;;;23.37;75.22;92717.00;5013119;28;20731;-80
2023/06/14 07:20:11;;;;;;;17.60;15.85;;;;;;;23.03;74.65;92721.31;5011325;28;20225;-80
2023/06/14 07:22:40;;;;;;;17.80;16.00;;;;;;;22.13;76.58;92683.69;5011813;28;20185;-78
2023/06/14 07:25:06;;;;;;;20.30;15.05;;;;;;;22.01;78.97;92715.69;5011462;28;20240;-79
2023/06/14 07:27:32;;;;;;;17.55;15.10;;;;;;;21.89;78.87;92710.50;5018088;28;20183;-80
2023/06/14 07:29:57;;;;;;;19.92;17.92;;;;;;;21.37;80.38;92627.63;5023981;28;20214;-80
2023/06/14 07:32:22;;;;;;;16.42;14.80;;;;;;;21.07;83.44;92703.50;5012320;28;20219;-79
2023/06/14 07:34:48;;;;;;;22.00;16.67;;;;;;;20.91;83.57;92679.56;5000698;28;20235;-80
2023/06/14 07:37:13;;;;;;;18.27;16.38;;;;;;;21.52;81.58;92707.31;5010673;28;20181;-79
2023/06/14 07:39:38;;;;;;;21.63;16.90;;;;;;;20.73;84.74;92702.22;5010748;28;20254;-79
2023/06/14 07:42:04;;;;;;;18.33;16.38;;;;;;;20.68;86.16;92697.88;5011537;28;20193;-79
2023/06/14 07:44:32;;;;;;;19.30;16.80;;;;;;;22.02;82.11;92706.63;5014703;28;20215;-80
2023/06/14 07:46:59;;;;;;;20.25;16.83;;;;;;;22.86;77.79;92716.41;5010637;28;20180;-79
2023/06/14 07:49:25;;;;;;;17.98;15.57;;;;;;;23.46;74.80;92705.00;5023041;28;20536;-79
2023/06/14 07:51:50;;;;;;;19.02;17.05;;;;;;;22.70;77.70;92693.63;5013723;28;20179;-79
2023/06/14 07:54:16;;;;;;;21.17;16.63;;;;;;;23.25;76.28;92691.28;5006241;28;20181;-79
2023/06/14 07:56:42;;;;;;;21.05;17.02;;;;;;;23.02;77.66;92719.75;5011974;28;20178;-79
2023/06/14 07:59:07;;;;;;;18.80;15.82;;;;;;;22.56;77.33;92712.75;5014816;28;20244;-79
2023/06/14 08:01:33;;;;;;;17.80;15.65;;;;;;;23.02;77.55;92732.31;5013045;28;20186;-79
2023/06/14 08:03:58;;;;;;;18.23;16.40;;;;;;;23.16;74.74;92733.34;5010619;28;20186;-80
2023/06/14 08:06:24;;;;;;;17.48;15.07;;;;;;;22.92;74.16;92728.31;5011084;28;20210;-80
2023/06/14 08:08:50;;;;;;;17.55;15.77;;;;;;;22.42;74.73;92728.41;5008882;28;20190;-80
2023/06/14 08:11:15;;;;;;;17.50;15.70;;;;;;;22.79;74.60;92718.94;5009696;28;20229;-80
2023/06/14 08:13:41;;;;;;;18.92;16.95;;;;;;;21.80;78.23;92747.13;5014185;28;20186;-79
2023/06/14 08:16:06;;;;;;;18.02;16.33;;;;;;;22.05;81.68;92705.94;5011466;28;20284;-80
2023/06/14 08:18:31;;;;;;;19.00;15.70;;;;;;;22.71;77.20;92743.88;5011586;28;20246;-80
2023/06/14 08:20:57;;;;;;;17.45;15.60;;;;;;;22.43;77.17;92748.56;5008872;28;20217;-79
2023/06/14 08:23:23;;;;;;;17.25;14.82;;;;;;;22.33;76.04;92732.38;5011042;28;20182;-79
2023/06/14 08:25:48;;;;;;;19.42;15.13;;;;;;;22.56;75.56;92731.38;5009718;28;20237;-79
2023/06/14 08:28:13;;;;;;;19.60;14.77;;;;;;;22.64;77.21;92761.59;5013923;28;20186;-79
2023/06/14 08:30:39;;;;;;;17.73;15.35;;;;;;;22.72;77.13;92758.72;5011689;28;20230;-77
2023/06/14 08:33:05;;;;;;;19.55;16.20;;;;;;;22.11;79.82;92734.56;4993469;28;20215;-79
2023/06/14 08:35:30;;;;;;;18.35;16.25;;;;;;;21.22;81.43;92742.56;4998818;28;20289;-79
2023/06/14 08:37:55;;;;;;;19.27;17.17;;;;;;;21.54;81.88;92754.81;5010660;28;20301;-79
2023/06/14 08:40:23;;;;;;;18.95;16.95;;;;;;;21.77;83.56;92755.78;5010007;28;20797;-79
2023/06/14 08:42:52;;;;;;;18.30;16.48;;;;;;;21.25;82.28;92744.56;5009647;28;20198;-79
2023/06/14 08:45:18;;;;;;;25.25;18.35;;;;;;;20.85;86.80;92723.38;5010009;28;20222;-78
2023/06/14 08:47:45;;;;;;;20.80;16.95;;;;;;;21.56;83.11;92737.41;5010487;28;20191;-79
2023/06/14 08:50:11;;;;;;;18.73;16.17;;;;;;;21.56;83.93;92702.06;5010361;28;20239;-79
2023/06/14 08:52:45;;;;;;;18.58;16.45;;;;;;;22.46;80.20;92736.47;5010774;28;20208;-79
2023/06/14 08:55:11;;;;;;;19.58;16.48;;;;;;;23.07;76.66;92748.78;5011491;28;20227;-79
2023/06/14 08:57:38;;;;;;;19.55;16.95;;;;;;;22.94;77.92;92741.28;5015974;28;20339;-79
2023/06/14 09:00:12;;;;;;;18.55;16.60;;;;;;;22.63;77.38;92752.81;4993408;28;20299;-78
2023/06/14 09:02:43;;;;;;;19.35;17.27;;;;;;;22.78;76.60;92752.00;5012259;28;20187;-79
2023/06/14 09:05:09;;;;;;;18.75;16.95;;;;;;;22.98;75.72;92747.44;5010646;28;20774;-79
2023/06/14 09:07:36;;;;;;;21.15;17.48;;;;;;;23.44;71.65;92747.22;5016610;28;20186;-79
2023/06/14 09:10:10;;;;;;;18.73;16.73;;;;;;;23.10;73.99;92745.41;5011272;28;20231;-79
2023/06/14 09:12:36;;;;;;;20.02;16.98;;;;;;;23.29;74.37;92729.44;5016401;28;20221;-78
2023/06/14 09:15:05;;;;;;;21.02;17.05;;;;;;;23.61;76.35;92736.09;4993529;28;20237;-79
2023/06/14 09:17:33;;;;;;;18.67;16.83;;;;;;;24.51;68.71;92745.91;5023167;28;20202;-79
2023/06/14 09:19:59;;;;;;;20.63;17.52;;;;;;;24.37;69.03;92742.25;5005981;28;20807;-79
2023/06/14 09:22:24;;;;;;;20.08;15.98;;;;;;;24.50;69.33;92723.00;5011138;28;20174;-79
2023/06/14 09:24:50;;;;;;;19.83;17.33;;;;;;;24.75;66.97;92724.09;5021638;28;20252;-78
2023/06/14 09:27:16;;;;;;;20.05;17.50;;;;;;;23.97;66.47;92654.75;5019362;28;20194;-79
2023/06/14 09:29:41;;;;;;;18.15;16.25;;;;;;;24.36;68.80;92740.72;5013764;28;20234;-80
2023/06/14 09:32:07;;;;;;;19.10;16.17;;;;;;;24.06;69.38;92731.88;5015199;28;20197;-80
2023/06/14 09:34:34;;;;;;;17.42;15.80;;;;;;;24.31;69.96;92728.44;5006091;28;20261;-79
2023/06/14 09:37:00;;;;;;;18.10;16.23;;;;;;;24.30;69.83;92726.91;5011857;28;20193;-81
2023/06/14 09:39:25;;;;;;;23.65;15.98;;;;;;;23.58;71.31;92730.72;5013432;28;20226;-82
2023/06/14 09:41:50;;;;;;;19.38;17.38;;;;;;;22.69;74.57;92702.75;5018099;28;20197;-81
2023/06/14 09:44:17;;;;;;;18.23;16.08;;;;;;;22.98;75.71;92726.91;5013668;28;20214;-80
2023/06/14 09:46:44;;;;;;;18.25;16.17;;;;;;;22.59;78.75;92696.09;5016186;28;20201;-80
2023/06/14 09:49:09;;;;;;;17.77;15.95;;;;;;;22.10;78.89;92697.69;5013410;28;20186;-80
2023/06/14 09:51:41;;;;;;;19.30;16.45;;;;;;;22.15;79.21;92684.88;5013623;28;20789;-80
2023/06/14 09:54:12;;;;;;;18.45;16.63;;;;;;;22.64;78.31;92721.66;5013711;28;20212;-80
2023/06/14 09:56:42;;;;;;;18.55;16.55;;;;;;;22.11;78.61;92721.28;5017974;28;20199;-80
2023/06/14 09:59:09;;;;;;;18.33;16.27;;;;;;;22.32;80.33;92726.28;5013539;28;20496;-80
2023/06/14 10:01:41;;;;;;;17.30;15.50;;;;;;;21.68;80.25;92680.75;4996665;28;20201;-80
2023/06/14 10:04:08;;;;;;;21.25;17.52;;;;;;;21.49;80.08;92709.88;5012440;28;20198;-79
2023/06/14 10:06:38;;;;;;;19.13;17.10;;;;;;;22.48;80.44;92719.03;5012086;28;20201;-79
2023/06/14 10:09:07;;;;;;;20.17;17.80;;;;;;;22.71;77.41;92701.28;5009896;28;20205;-80
2023/06/14 10:11:33;;;;;;;21.52;17.92;;;;;;;22.83;74.44;92687.06;5016482;28;20221;-80
2023/06/14 10:13:59;;;;;;;20.38;18.15;;;;;;;22.67;74.21;92687.13;5013532;28;20215;-80
2023/06/14 10:16:43;;;;;;;19.13;17.15;;;;;;;22.72;74.23;92697.50;5014376;28;20201;-80
2023/06/14 10:19:21;;;;;;;19.92;17.30;;;;;;;23.04;75.37;92690.09;5000741;28;20189;-80
2023/06/14 10:21:55;;;;;;;20.90;16.65;;;;;;;23.03;72.35;92692.03;5012832;28;20198;-81
2023/06/14 10:24:29;;;;;;;20.48;18.05;;;;;;;22.23;74.13;92637.91;5013092;28;20904;-79
2023/06/14 10:26:57;;;;;;;18.60;16.73;;;;;;;22.94;75.35;92694.09;5017047;28;20218;-80
2023/06/14 10:29:23;;;;;;;18.40;16.60;;;;;;;24.00;72.62;92693.31;5000696;28;20328;-80
2023/06/14 10:31:50;;;;;;;17.63;15.85;;;;;;;24.20;67.91;92708.09;5013842;28;20240;-80
2023/06/14 10:34:27;;;;;;;21.13;15.80;;;;;;;23.71;69.28;92695.50;5006141;28;20202;-80
2023/06/14 10:37:12;;;;;;;19.40;17.42;;;;;;;23.90;68.78;92699.22;5007861;28;20217;-79
2023/06/14 10:39:45;;;;;;;17.90;15.98;;;;;;;23.89;69.46;92695.78;5005564;28;20299;-80
2023/06/14 10:42:11;;;;;;;18.58;16.60;;;;;;;23.94;70.05;92703.47;5014901;28;20193;-79
2023/06/14 10:44:45;;;;;;;19.13;15.45;;;;;;;24.05;69.59;92690.34;5012009;28;20258;-80
2023/06/14 10:47:20;;;;;;;22.98;15.27;;;;;;;24.11;69.73;92694.97;5009175;28;20199;-81
2023/06/14 10:49:50;;;;;;;21.85;17.40;;;;;;;23.85;69.61;92688.84;5007537;28;20229;-84
2023/06/14 10:52:19;;;;;;;20.92;16.70;;;;;;;23.81;71.03;92694.13;5012976;28;20186;-79
2023/06/14 10:54:59;;;;;;;19.48;17.35;;;;;;;24.12;70.85;92677.88;5012046;28;20261;-79
2023/06/14 10:57:25;;;;;;;17.10;15.43;;;;;;;23.85;73.33;92646.16;5012000;28;20212;-80
2023/06/14 10:59:50;;;;;;;19.85;16.42;;;;;;;23.89;71.33;92676.34;5011966;28;20226;-79
2023/06/14 11:02:21;;;;;;;18.45;16.55;;;;;;;23.48;71.42;92676.09;5002169;28;20205;-80
2023/06/14 11:04:52;;;;;;;18.15;16.13;;;;;;;23.56;72.42;92675.06;5010960;28;20241;-80
2023/06/14 11:08:00;;;;;;;22.83;15.93;;;;;;;23.51;73.10;92666.59;5012415;28;20221;-80
2023/06/14 11:10:39;;;;;;;18.05;15.43;;;;;;;23.85;71.64;92673.63;4985843;28;20242;-81
2023/06/14 11:13:05;;;;;;;20.27;16.15;;;;;;;23.03;73.68;92664.59;5010868;28;20229;-81